Portada
METAR-TAF:

METAR-TAF

Aeroports :

Lappeenranta, Finlàndia

latitud: 61-02-45N, longitud: 028-08-55E, altitud: 106 m

Observació

L'informe es va fer fa 13 minuts, a les 16:20 UTC
Vent 4 kt del Oest, variant entre Oest/Sud-Oest i Nord-Oest
Temperatura -5°C
Humitat 93%
Pressió 1011 hPa
Visibilitat 10 km o més
sense núvols per sota de 1500 mi sense presència de cumulonimbus.

METAR: EFLP 101620Z AUTO 27004KT 240V320 CAVOK M05/M06 Q1011

Hora: 18:33 (16:33 UTC)


TAF: manca

Observacions i pronòstics meteorològics de més de 4000 aeroports (METAR i TAF).

Les estacions disponibles són els punts grocs i vermells al mapa.

Posi el ratolí al punt desitjat per veure el nom de l'estació.

Feu clic per veure les observacions i els pronòstics meteorològics.

Per canviar el mapa: feu clic els botons verds amb una creu de color negre per apropar; al botó verd amb un guió per allunyar la imatge; o en les fletxes verdes per a mapes adjacents.


METAR-TAF: